sensor_id;sensor_type;location;lat;lon;timestamp;P1;durP1;ratioP1;P2;durP2;ratioP2
61785;SDS011;47692;53.714;11.372;2023-08-06T00:02:04;6.35;;;2.50;;
61785;SDS011;47692;53.714;11.372;2023-08-06T00:04:29;6.07;;;2.70;;
61785;SDS011;47692;53.714;11.372;2023-08-06T00:06:54;5.90;;;2.50;;
61785;SDS011;47692;53.714;11.372;2023-08-06T00:09:20;5.05;;;2.65;;
61785;SDS011;47692;53.714;11.372;2023-08-06T00:11:45;8.23;;;3.25;;
61785;SDS011;47692;53.714;11.372;2023-08-06T00:14:11;8.90;;;2.88;;
61785;SDS011;47692;53.714;11.372;2023-08-06T00:16:37;7.30;;;2.72;;
61785;SDS011;47692;53.714;11.372;2023-08-06T00:19:02;8.45;;;3.00;;
61785;SDS011;47692;53.714;11.372;2023-08-06T00:21:28;3.72;;;2.30;;
61785;SDS011;47692;53.714;11.372;2023-08-06T00:23:53;5.38;;;2.90;;
61785;SDS011;47692;53.714;11.372;2023-08-06T00:26:18;3.95;;;2.40;;
61785;SDS011;47692;53.714;11.372;2023-08-06T00:28:44;5.32;;;2.63;;
61785;SDS011;47692;53.714;11.372;2023-08-06T00:31:09;9.32;;;2.90;;
61785;SDS011;47692;53.714;11.372;2023-08-06T00:33:35;4.63;;;2.80;;
61785;SDS011;47692;53.714;11.372;2023-08-06T00:36:00;4.63;;;2.60;;
61785;SDS011;47692;53.714;11.372;2023-08-06T00:38:25;5.25;;;2.75;;
61785;SDS011;47692;53.714;11.372;2023-08-06T00:40:51;6.05;;;2.50;;
61785;SDS011;47692;53.714;11.372;2023-08-06T00:43:16;4.88;;;2.55;;
61785;SDS011;47692;53.714;11.372;2023-08-06T00:45:42;4.82;;;3.10;;
61785;SDS011;47692;53.714;11.372;2023-08-06T00:48:08;5.55;;;2.70;;
61785;SDS011;47692;53.714;11.372;2023-08-06T00:50:33;5.13;;;2.47;;
61785;SDS011;47692;53.714;11.372;2023-08-06T00:52:59;8.52;;;2.60;;
61785;SDS011;47692;53.714;11.372;2023-08-06T00:55:24;8.30;;;2.88;;
61785;SDS011;47692;53.714;11.372;2023-08-06T00:57:50;5.47;;;2.70;;
61785;SDS011;47692;53.714;11.372;2023-08-06T01:00:16;4.65;;;2.47;;
61785;SDS011;47692;53.714;11.372;2023-08-06T01:02:41;5.28;;;2.47;;
61785;SDS011;47692;53.714;11.372;2023-08-06T01:05:07;5.70;;;3.13;;
61785;SDS011;47692;53.714;11.372;2023-08-06T01:10:19;7.63;;;2.80;;
61785;SDS011;47692;53.714;11.372;2023-08-06T01:13:37;5.78;;;2.72;;
61785;SDS011;47692;53.714;11.372;2023-08-06T01:15:57;5.32;;;2.63;;
61785;SDS011;47692;53.714;11.372;2023-08-06T01:18:24;5.50;;;2.88;;
61785;SDS011;47692;53.714;11.372;2023-08-06T01:20:50;3.97;;;2.45;;
61785;SDS011;47692;53.714;11.372;2023-08-06T01:23:16;8.88;;;2.90;;
61785;SDS011;47692;53.714;11.372;2023-08-06T01:25:48;5.18;;;2.30;;
61785;SDS011;47692;53.714;11.372;2023-08-06T01:31:10;5.32;;;2.53;;
61785;SDS011;47692;53.714;11.372;2023-08-06T01:33:46;6.00;;;2.88;;
61785;SDS011;47692;53.714;11.372;2023-08-06T01:36:15;3.88;;;2.33;;
61785;SDS011;47692;53.714;11.372;2023-08-06T01:38:43;10.60;;;3.03;;
61785;SDS011;47692;53.714;11.372;2023-08-06T01:41:09;8.07;;;2.88;;
61785;SDS011;47692;53.714;11.372;2023-08-06T01:43:34;7.50;;;2.47;;
61785;SDS011;47692;53.714;11.372;2023-08-06T01:45:59;6.60;;;2.50;;
61785;SDS011;47692;53.714;11.372;2023-08-06T01:48:25;6.20;;;2.63;;
61785;SDS011;47692;53.714;11.372;2023-08-06T01:50:50;4.05;;;2.63;;
61785;SDS011;47692;53.714;11.372;2023-08-06T01:53:15;6.60;;;2.90;;
61785;SDS011;47692;53.714;11.372;2023-08-06T01:55:41;5.93;;;2.88;;
61785;SDS011;47692;53.714;11.372;2023-08-06T01:58:06;7.38;;;3.17;;
61785;SDS011;47692;53.714;11.372;2023-08-06T02:00:31;9.48;;;3.08;;
61785;SDS011;47692;53.714;11.372;2023-08-06T02:02:57;6.93;;;3.00;;
61785;SDS011;47692;53.714;11.372;2023-08-06T02:05:22;4.97;;;2.90;;
61785;SDS011;47692;53.714;11.372;2023-08-06T02:07:47;5.47;;;2.92;;
61785;SDS011;47692;53.714;11.372;2023-08-06T02:10:13;5.28;;;2.80;;
61785;SDS011;47692;53.714;11.372;2023-08-06T02:12:38;7.10;;;2.92;;
61785;SDS011;47692;53.714;11.372;2023-08-06T02:15:03;5.63;;;2.83;;
61785;SDS011;47692;53.714;11.372;2023-08-06T02:17:29;5.50;;;3.10;;
61785;SDS011;47692;53.714;11.372;2023-08-06T02:19:54;10.60;;;3.03;;
61785;SDS011;47692;53.714;11.372;2023-08-06T02:22:20;4.65;;;2.42;;
61785;SDS011;47692;53.714;11.372;2023-08-06T02:24:45;5.88;;;2.80;;
61785;SDS011;47692;53.714;11.372;2023-08-06T02:27:10;7.18;;;2.78;;
61785;SDS011;47692;53.714;11.372;2023-08-06T02:29:36;7.60;;;3.08;;
61785;SDS011;47692;53.714;11.372;2023-08-06T02:32:01;5.28;;;2.83;;
61785;SDS011;47692;53.714;11.372;2023-08-06T02:34:27;6.97;;;2.67;;
61785;SDS011;47692;53.714;11.372;2023-08-06T02:36:52;7.53;;;3.03;;
61785;SDS011;47692;53.714;11.372;2023-08-06T02:39:18;5.22;;;2.85;;
61785;SDS011;47692;53.714;11.372;2023-08-06T02:41:44;8.00;;;3.03;;
61785;SDS011;47692;53.714;11.372;2023-08-06T02:44:09;7.70;;;3.30;;
61785;SDS011;47692;53.714;11.372;2023-08-06T02:46:34;5.30;;;2.80;;
61785;SDS011;47692;53.714;11.372;2023-08-06T02:49:00;6.68;;;3.33;;
61785;SDS011;47692;53.714;11.372;2023-08-06T02:51:25;5.38;;;3.35;;
61785;SDS011;47692;53.714;11.372;2023-08-06T02:53:50;7.18;;;3.22;;
61785;SDS011;47692;53.714;11.372;2023-08-06T02:56:16;7.20;;;2.78;;
61785;SDS011;47692;53.714;11.372;2023-08-06T02:58:41;4.80;;;2.97;;
61785;SDS011;47692;53.714;11.372;2023-08-06T03:01:06;5.53;;;2.85;;
61785;SDS011;47692;53.714;11.372;2023-08-06T03:03:32;5.03;;;3.10;;
61785;SDS011;47692;53.714;11.372;2023-08-06T03:05:58;5.80;;;2.97;;
61785;SDS011;47692;53.714;11.372;2023-08-06T03:08:24;6.90;;;3.60;;
61785;SDS011;47692;53.714;11.372;2023-08-06T03:10:50;8.15;;;4.03;;
61785;SDS011;47692;53.714;11.372;2023-08-06T03:13:16;6.70;;;2.67;;
61785;SDS011;47692;53.714;11.372;2023-08-06T03:15:42;6.70;;;2.88;;
61785;SDS011;47692;53.714;11.372;2023-08-06T03:18:07;7.95;;;3.00;;
61785;SDS011;47692;53.714;11.372;2023-08-06T03:20:33;12.02;;;2.78;;
61785;SDS011;47692;53.714;11.372;2023-08-06T03:22:58;8.43;;;3.22;;
61785;SDS011;47692;53.714;11.372;2023-08-06T03:25:23;7.43;;;3.13;;
61785;SDS011;47692;53.714;11.372;2023-08-06T03:27:49;6.10;;;2.70;;
61785;SDS011;47692;53.714;11.372;2023-08-06T03:30:14;5.28;;;3.10;;
61785;SDS011;47692;53.714;11.372;2023-08-06T03:32:39;8.27;;;2.80;;
61785;SDS011;47692;53.714;11.372;2023-08-06T03:35:05;4.93;;;2.70;;
61785;SDS011;47692;53.714;11.372;2023-08-06T03:37:30;5.88;;;2.80;;
61785;SDS011;47692;53.714;11.372;2023-08-06T03:39:56;4.80;;;2.58;;
61785;SDS011;47692;53.714;11.372;2023-08-06T03:42:21;7.63;;;3.00;;
61785;SDS011;47692;53.714;11.372;2023-08-06T03:44:46;6.15;;;2.75;;
61785;SDS011;47692;53.714;11.372;2023-08-06T03:47:12;9.05;;;3.38;;
61785;SDS011;47692;53.714;11.372;2023-08-06T03:49:38;4.88;;;3.20;;
61785;SDS011;47692;53.714;11.372;2023-08-06T03:52:03;7.53;;;3.00;;
61785;SDS011;47692;53.714;11.372;2023-08-06T03:54:29;7.85;;;3.05;;
61785;SDS011;47692;53.714;11.372;2023-08-06T03:56:55;9.30;;;2.88;;
61785;SDS011;47692;53.714;11.372;2023-08-06T03:59:20;6.90;;;3.10;;
61785;SDS011;47692;53.714;11.372;2023-08-06T04:01:45;6.40;;;2.90;;
61785;SDS011;47692;53.714;11.372;2023-08-06T04:04:11;6.15;;;2.80;;
61785;SDS011;47692;53.714;11.372;2023-08-06T04:06:36;4.90;;;2.60;;
61785;SDS011;47692;53.714;11.372;2023-08-06T04:09:01;5.47;;;2.58;;
61785;SDS011;47692;53.714;11.372;2023-08-06T04:11:27;10.23;;;3.53;;
61785;SDS011;47692;53.714;11.372;2023-08-06T04:13:53;5.38;;;2.70;;
61785;SDS011;47692;53.714;11.372;2023-08-06T04:16:20;9.63;;;2.72;;
61785;SDS011;47692;53.714;11.372;2023-08-06T04:18:45;6.53;;;3.00;;
61785;SDS011;47692;53.714;11.372;2023-08-06T04:21:12;7.30;;;2.58;;
61785;SDS011;47692;53.714;11.372;2023-08-06T04:23:37;6.47;;;2.47;;
61785;SDS011;47692;53.714;11.372;2023-08-06T04:26:02;6.60;;;2.92;;
61785;SDS011;47692;53.714;11.372;2023-08-06T04:28:28;4.75;;;2.72;;
61785;SDS011;47692;53.714;11.372;2023-08-06T04:30:53;7.28;;;2.80;;
61785;SDS011;47692;53.714;11.372;2023-08-06T04:33:19;7.03;;;2.75;;
61785;SDS011;47692;53.714;11.372;2023-08-06T04:35:45;7.63;;;3.17;;
61785;SDS011;47692;53.714;11.372;2023-08-06T04:38:10;6.47;;;2.88;;
61785;SDS011;47692;53.714;11.372;2023-08-06T04:40:35;6.70;;;2.75;;
61785;SDS011;47692;53.714;11.372;2023-08-06T04:43:01;8.60;;;2.85;;
61785;SDS011;47692;53.714;11.372;2023-08-06T04:45:26;6.30;;;2.92;;
61785;SDS011;47692;53.714;11.372;2023-08-06T04:47:52;5.40;;;2.55;;
61785;SDS011;47692;53.714;11.372;2023-08-06T04:50:17;7.40;;;3.05;;
61785;SDS011;47692;53.714;11.372;2023-08-06T04:52:43;6.70;;;2.70;;
61785;SDS011;47692;53.714;11.372;2023-08-06T04:55:08;6.25;;;3.25;;
61785;SDS011;47692;53.714;11.372;2023-08-06T04:57:34;9.35;;;3.33;;
61785;SDS011;47692;53.714;11.372;2023-08-06T04:59:59;10.38;;;3.08;;
61785;SDS011;47692;53.714;11.372;2023-08-06T05:02:24;6.22;;;2.88;;
61785;SDS011;47692;53.714;11.372;2023-08-06T05:04:50;5.45;;;2.45;;
61785;SDS011;47692;53.714;11.372;2023-08-06T05:07:15;7.20;;;3.05;;
61785;SDS011;47692;53.714;11.372;2023-08-06T05:09:40;8.02;;;3.28;;
61785;SDS011;47692;53.714;11.372;2023-08-06T05:12:06;7.65;;;3.15;;
61785;SDS011;47692;53.714;11.372;2023-08-06T05:14:31;5.53;;;2.95;;
61785;SDS011;47692;53.714;11.372;2023-08-06T05:16:56;6.07;;;2.63;;
61785;SDS011;47692;53.714;11.372;2023-08-06T05:19:22;6.30;;;3.50;;
61785;SDS011;47692;53.714;11.372;2023-08-06T05:21:47;8.13;;;3.15;;
61785;SDS011;47692;53.714;11.372;2023-08-06T05:24:12;8.23;;;3.10;;
61785;SDS011;47692;53.714;11.372;2023-08-06T05:26:37;7.13;;;2.95;;
61785;SDS011;47692;53.714;11.372;2023-08-06T05:29:03;7.03;;;3.17;;
61785;SDS011;47692;53.714;11.372;2023-08-06T05:31:28;6.18;;;2.80;;
61785;SDS011;47692;53.714;11.372;2023-08-06T05:33:54;7.10;;;3.00;;
61785;SDS011;47692;53.714;11.372;2023-08-06T05:36:19;8.45;;;3.47;;
61785;SDS011;47692;53.714;11.372;2023-08-06T05:38:46;6.82;;;3.00;;
61785;SDS011;47692;53.714;11.372;2023-08-06T05:41:11;10.48;;;3.65;;
61785;SDS011;47692;53.714;11.372;2023-08-06T05:43:36;6.53;;;3.17;;
61785;SDS011;47692;53.714;11.372;2023-08-06T05:46:02;5.90;;;3.22;;
61785;SDS011;47692;53.714;11.372;2023-08-06T05:48:27;6.13;;;3.00;;
61785;SDS011;47692;53.714;11.372;2023-08-06T05:50:53;6.80;;;3.50;;
61785;SDS011;47692;53.714;11.372;2023-08-06T05:53:18;5.07;;;3.15;;
61785;SDS011;47692;53.714;11.372;2023-08-06T05:55:44;6.45;;;3.13;;
61785;SDS011;47692;53.714;11.372;2023-08-06T05:58:10;5.22;;;3.25;;
61785;SDS011;47692;53.714;11.372;2023-08-06T06:00:35;7.82;;;2.90;;
61785;SDS011;47692;53.714;11.372;2023-08-06T06:03:00;6.82;;;3.00;;
61785;SDS011;47692;53.714;11.372;2023-08-06T06:05:27;6.47;;;3.20;;
61785;SDS011;47692;53.714;11.372;2023-08-06T06:07:53;6.13;;;2.95;;
61785;SDS011;47692;53.714;11.372;2023-08-06T06:10:18;5.82;;;2.78;;
61785;SDS011;47692;53.714;11.372;2023-08-06T06:12:43;5.97;;;2.90;;
61785;SDS011;47692;53.714;11.372;2023-08-06T06:15:09;8.93;;;3.13;;
61785;SDS011;47692;53.714;11.372;2023-08-06T06:17:34;6.95;;;3.13;;
61785;SDS011;47692;53.714;11.372;2023-08-06T06:20:00;7.80;;;3.00;;
61785;SDS011;47692;53.714;11.372;2023-08-06T06:22:25;9.13;;;3.20;;
61785;SDS011;47692;53.714;11.372;2023-08-06T06:24:51;4.57;;;2.97;;
61785;SDS011;47692;53.714;11.372;2023-08-06T06:27:16;5.07;;;3.25;;
61785;SDS011;47692;53.714;11.372;2023-08-06T06:29:41;6.75;;;3.35;;
61785;SDS011;47692;53.714;11.372;2023-08-06T06:32:06;4.90;;;3.00;;
61785;SDS011;47692;53.714;11.372;2023-08-06T06:34:32;7.47;;;3.70;;
61785;SDS011;47692;53.714;11.372;2023-08-06T06:36:57;6.75;;;3.38;;
61785;SDS011;47692;53.714;11.372;2023-08-06T06:39:22;8.00;;;3.20;;
61785;SDS011;47692;53.714;11.372;2023-08-06T06:41:48;7.80;;;3.20;;
61785;SDS011;47692;53.714;11.372;2023-08-06T06:44:13;4.50;;;3.08;;
61785;SDS011;47692;53.714;11.372;2023-08-06T06:46:38;6.93;;;3.00;;
61785;SDS011;47692;53.714;11.372;2023-08-06T06:49:04;6.07;;;3.35;;
61785;SDS011;47692;53.714;11.372;2023-08-06T06:51:29;8.02;;;2.92;;
61785;SDS011;47692;53.714;11.372;2023-08-06T06:53:56;7.78;;;2.90;;
61785;SDS011;47692;53.714;11.372;2023-08-06T06:56:22;6.70;;;3.10;;
61785;SDS011;47692;53.714;11.372;2023-08-06T06:58:47;5.93;;;3.00;;
61785;SDS011;47692;53.714;11.372;2023-08-06T07:01:12;7.15;;;2.75;;
61785;SDS011;47692;53.714;11.372;2023-08-06T07:03:38;7.47;;;3.03;;
61785;SDS011;47692;53.714;11.372;2023-08-06T07:06:03;10.50;;;3.83;;
61785;SDS011;47692;53.714;11.372;2023-08-06T07:08:29;7.57;;;3.25;;
61785;SDS011;47692;53.714;11.372;2023-08-06T07:11:03;6.55;;;3.00;;
61785;SDS011;47692;53.714;11.372;2023-08-06T07:13:30;8.40;;;3.28;;
61785;SDS011;47692;53.714;11.372;2023-08-06T07:15:56;5.63;;;3.00;;
61785;SDS011;47692;53.714;11.372;2023-08-06T07:18:22;5.55;;;3.10;;
61785;SDS011;47692;53.714;11.372;2023-08-06T07:20:48;7.82;;;2.75;;
61785;SDS011;47692;53.714;11.372;2023-08-06T07:23:14;7.57;;;2.53;;
61785;SDS011;47692;53.714;11.372;2023-08-06T07:25:39;6.20;;;2.70;;
61785;SDS011;47692;53.714;11.372;2023-08-06T07:28:05;5.72;;;3.20;;
61785;SDS011;47692;53.714;11.372;2023-08-06T07:30:30;5.32;;;3.00;;
61785;SDS011;47692;53.714;11.372;2023-08-06T07:32:56;7.22;;;2.97;;
61785;SDS011;47692;53.714;11.372;2023-08-06T07:35:21;5.80;;;3.20;;
61785;SDS011;47692;53.714;11.372;2023-08-06T07:37:46;6.05;;;3.10;;
61785;SDS011;47692;53.714;11.372;2023-08-06T07:40:12;6.50;;;3.08;;
61785;SDS011;47692;53.714;11.372;2023-08-06T07:42:37;5.57;;;2.75;;
61785;SDS011;47692;53.714;11.372;2023-08-06T07:45:02;7.63;;;3.00;;
61785;SDS011;47692;53.714;11.372;2023-08-06T07:47:28;8.27;;;3.00;;
61785;SDS011;47692;53.714;11.372;2023-08-06T07:49:53;5.63;;;3.00;;
61785;SDS011;47692;53.714;11.372;2023-08-06T07:52:19;7.22;;;3.08;;
61785;SDS011;47692;53.714;11.372;2023-08-06T07:54:44;6.68;;;2.60;;
61785;SDS011;47692;53.714;11.372;2023-08-06T07:57:09;8.43;;;2.85;;
61785;SDS011;47692;53.714;11.372;2023-08-06T07:59:35;7.15;;;3.05;;
61785;SDS011;47692;53.714;11.372;2023-08-06T08:02:00;6.55;;;3.25;;
61785;SDS011;47692;53.714;11.372;2023-08-06T08:04:26;7.88;;;3.22;;
61785;SDS011;47692;53.714;11.372;2023-08-06T08:06:51;5.80;;;2.70;;
61785;SDS011;47692;53.714;11.372;2023-08-06T08:09:16;7.38;;;2.92;;
61785;SDS011;47692;53.714;11.372;2023-08-06T08:11:43;9.00;;;3.20;;
61785;SDS011;47692;53.714;11.372;2023-08-06T08:14:08;8.18;;;3.47;;
61785;SDS011;47692;53.714;11.372;2023-08-06T08:16:33;8.02;;;3.65;;
61785;SDS011;47692;53.714;11.372;2023-08-06T08:18:59;5.50;;;2.95;;
61785;SDS011;47692;53.714;11.372;2023-08-06T08:21:24;4.75;;;2.65;;
61785;SDS011;47692;53.714;11.372;2023-08-06T08:23:50;5.45;;;2.75;;
61785;SDS011;47692;53.714;11.372;2023-08-06T08:26:16;5.03;;;2.78;;
61785;SDS011;47692;53.714;11.372;2023-08-06T08:28:41;5.45;;;2.95;;
61785;SDS011;47692;53.714;11.372;2023-08-06T08:31:10;5.47;;;3.13;;
61785;SDS011;47692;53.714;11.372;2023-08-06T08:33:36;5.72;;;3.10;;
61785;SDS011;47692;53.714;11.372;2023-08-06T08:36:02;4.75;;;3.00;;
61785;SDS011;47692;53.714;11.372;2023-08-06T08:38:28;8.63;;;3.00;;
61785;SDS011;47692;53.714;11.372;2023-08-06T08:40:53;5.82;;;2.70;;
61785;SDS011;47692;53.714;11.372;2023-08-06T08:43:22;6.80;;;2.85;;
61785;SDS011;47692;53.714;11.372;2023-08-06T08:45:49;11.55;;;3.08;;
61785;SDS011;47692;53.714;11.372;2023-08-06T08:48:15;7.10;;;3.17;;
61785;SDS011;47692;53.714;11.372;2023-08-06T08:50:44;8.90;;;3.60;;
61785;SDS011;47692;53.714;11.372;2023-08-06T08:53:10;4.72;;;3.13;;
61785;SDS011;47692;53.714;11.372;2023-08-06T08:55:38;4.38;;;2.50;;
61785;SDS011;47692;53.714;11.372;2023-08-06T08:58:04;7.78;;;3.38;;
61785;SDS011;47692;53.714;11.372;2023-08-06T09:00:29;4.40;;;2.58;;
61785;SDS011;47692;53.714;11.372;2023-08-06T09:02:55;8.23;;;3.08;;
61785;SDS011;47692;53.714;11.372;2023-08-06T09:05:21;4.82;;;2.55;;
61785;SDS011;47692;53.714;11.372;2023-08-06T09:07:49;5.45;;;2.88;;
61785;SDS011;47692;53.714;11.372;2023-08-06T09:10:17;7.53;;;3.25;;
61785;SDS011;47692;53.714;11.372;2023-08-06T09:12:48;5.50;;;2.88;;
61785;SDS011;47692;53.714;11.372;2023-08-06T09:15:14;5.75;;;3.15;;
61785;SDS011;47692;53.714;11.372;2023-08-06T09:17:39;4.43;;;2.80;;
61785;SDS011;47692;53.714;11.372;2023-08-06T09:20:14;7.10;;;3.30;;
61785;SDS011;47692;53.714;11.372;2023-08-06T09:22:40;5.05;;;3.08;;
61785;SDS011;47692;53.714;11.372;2023-08-06T09:25:06;7.75;;;2.85;;
61785;SDS011;47692;53.714;11.372;2023-08-06T09:27:35;4.93;;;2.45;;
61785;SDS011;47692;53.714;11.372;2023-08-06T09:30:04;5.65;;;2.72;;
61785;SDS011;47692;53.714;11.372;2023-08-06T09:32:47;4.43;;;2.50;;
61785;SDS011;47692;53.714;11.372;2023-08-06T09:35:19;5.35;;;2.60;;
61785;SDS011;47692;53.714;11.372;2023-08-06T09:37:46;7.75;;;2.92;;
61785;SDS011;47692;53.714;11.372;2023-08-06T09:42:53;5.28;;;2.70;;
61785;SDS011;47692;53.714;11.372;2023-08-06T09:45:19;10.70;;;2.72;;
61785;SDS011;47692;53.714;11.372;2023-08-06T09:47:44;5.63;;;2.60;;
61785;SDS011;47692;53.714;11.372;2023-08-06T09:50:19;6.63;;;2.75;;
61785;SDS011;47692;53.714;11.372;2023-08-06T09:52:46;4.20;;;2.50;;
61785;SDS011;47692;53.714;11.372;2023-08-06T09:55:12;7.53;;;2.83;;
61785;SDS011;47692;53.714;11.372;2023-08-06T09:57:39;4.75;;;2.28;;
61785;SDS011;47692;53.714;11.372;2023-08-06T10:00:06;6.13;;;2.63;;
61785;SDS011;47692;53.714;11.372;2023-08-06T10:02:34;7.78;;;2.63;;
61785;SDS011;47692;53.714;11.372;2023-08-06T10:05:02;4.15;;;2.58;;
61785;SDS011;47692;53.714;11.372;2023-08-06T10:07:28;4.90;;;2.70;;
61785;SDS011;47692;53.714;11.372;2023-08-06T10:09:55;4.03;;;2.60;;
61785;SDS011;47692;53.714;11.372;2023-08-06T10:12:20;5.03;;;2.72;;
61785;SDS011;47692;53.714;11.372;2023-08-06T10:14:46;6.13;;;2.45;;
61785;SDS011;47692;53.714;11.372;2023-08-06T10:17:14;6.55;;;2.38;;
61785;SDS011;47692;53.714;11.372;2023-08-06T10:19:40;4.22;;;2.65;;
61785;SDS011;47692;53.714;11.372;2023-08-06T10:22:14;5.13;;;2.63;;
61785;SDS011;47692;53.714;11.372;2023-08-06T10:27:22;7.57;;;2.67;;
61785;SDS011;47692;53.714;11.372;2023-08-06T10:32:59;5.28;;;2.10;;
61785;SDS011;47692;53.714;11.372;2023-08-06T10:40:35;6.10;;;2.35;;
61785;SDS011;47692;53.714;11.372;2023-08-06T10:43:02;4.32;;;2.22;;
61785;SDS011;47692;53.714;11.372;2023-08-06T10:45:28;4.20;;;2.47;;
61785;SDS011;47692;53.714;11.372;2023-08-06T10:47:55;7.00;;;2.47;;
61785;SDS011;47692;53.714;11.372;2023-08-06T10:50:22;5.45;;;2.60;;
61785;SDS011;47692;53.714;11.372;2023-08-06T10:52:48;5.38;;;2.28;;
61785;SDS011;47692;53.714;11.372;2023-08-06T10:55:14;4.05;;;2.28;;
61785;SDS011;47692;53.714;11.372;2023-08-06T10:57:48;6.13;;;2.22;;
61785;SDS011;47692;53.714;11.372;2023-08-06T11:00:18;3.30;;;2.10;;
61785;SDS011;47692;53.714;11.372;2023-08-06T11:02:46;3.55;;;1.85;;
61785;SDS011;47692;53.714;11.372;2023-08-06T11:05:14;4.07;;;2.05;;
61785;SDS011;47692;53.714;11.372;2023-08-06T11:07:39;5.88;;;2.28;;
61785;SDS011;47692;53.714;11.372;2023-08-06T11:10:05;6.30;;;1.90;;
61785;SDS011;47692;53.714;11.372;2023-08-06T11:12:33;6.38;;;2.40;;
61785;SDS011;47692;53.714;11.372;2023-08-06T11:14:59;5.82;;;2.17;;
61785;SDS011;47692;53.714;11.372;2023-08-06T11:17:25;7.22;;;2.28;;
61785;SDS011;47692;53.714;11.372;2023-08-06T11:19:52;3.67;;;2.03;;
61785;SDS011;47692;53.714;11.372;2023-08-06T11:22:20;6.57;;;2.70;;
61785;SDS011;47692;53.714;11.372;2023-08-06T11:24:46;3.60;;;2.67;;
61785;SDS011;47692;53.714;11.372;2023-08-06T11:27:12;4.93;;;2.20;;
61785;SDS011;47692;53.714;11.372;2023-08-06T11:29:39;4.53;;;2.35;;
61785;SDS011;47692;53.714;11.372;2023-08-06T11:32:05;5.18;;;1.90;;
61785;SDS011;47692;53.714;11.372;2023-08-06T11:34:31;5.60;;;2.30;;
61785;SDS011;47692;53.714;11.372;2023-08-06T11:36:56;3.55;;;2.28;;
61785;SDS011;47692;53.714;11.372;2023-08-06T11:39:22;4.32;;;2.50;;
61785;SDS011;47692;53.714;11.372;2023-08-06T11:41:47;5.82;;;2.40;;
61785;SDS011;47692;53.714;11.372;2023-08-06T11:44:13;6.13;;;2.10;;
61785;SDS011;47692;53.714;11.372;2023-08-06T11:46:55;2.72;;;1.90;;
61785;SDS011;47692;53.714;11.372;2023-08-06T11:49:43;3.40;;;2.10;;
61785;SDS011;47692;53.714;11.372;2023-08-06T11:52:19;5.68;;;2.10;;
61785;SDS011;47692;53.714;11.372;2023-08-06T11:54:58;4.80;;;2.10;;
61785;SDS011;47692;53.714;11.372;2023-08-06T11:57:37;4.85;;;2.10;;
61785;SDS011;47692;53.714;11.372;2023-08-06T12:02:35;3.78;;;2.10;;
61785;SDS011;47692;53.714;11.372;2023-08-06T12:05:12;3.92;;;1.73;;
61785;SDS011;47692;53.714;11.372;2023-08-06T12:07:39;4.65;;;1.95;;
61785;SDS011;47692;53.714;11.372;2023-08-06T12:10:06;6.10;;;2.10;;
61785;SDS011;47692;53.714;11.372;2023-08-06T12:12:32;5.13;;;2.30;;
61785;SDS011;47692;53.714;11.372;2023-08-06T12:14:57;4.80;;;2.20;;
61785;SDS011;47692;53.714;11.372;2023-08-06T12:17:23;2.60;;;1.90;;
61785;SDS011;47692;53.714;11.372;2023-08-06T12:19:49;5.25;;;2.10;;
61785;SDS011;47692;53.714;11.372;2023-08-06T12:22:15;5.78;;;2.30;;
61785;SDS011;47692;53.714;11.372;2023-08-06T12:24:44;6.25;;;2.00;;
61785;SDS011;47692;53.714;11.372;2023-08-06T12:27:10;3.72;;;2.38;;
61785;SDS011;47692;53.714;11.372;2023-08-06T12:29:35;5.63;;;2.53;;
61785;SDS011;47692;53.714;11.372;2023-08-06T12:32:01;3.72;;;2.08;;
61785;SDS011;47692;53.714;11.372;2023-08-06T12:34:27;3.67;;;1.60;;
61785;SDS011;47692;53.714;11.372;2023-08-06T12:36:52;3.30;;;1.90;;
61785;SDS011;47692;53.714;11.372;2023-08-06T12:39:18;5.63;;;1.77;;
61785;SDS011;47692;53.714;11.372;2023-08-06T12:41:43;2.67;;;1.80;;
61785;SDS011;47692;53.714;11.372;2023-08-06T12:44:10;3.97;;;1.75;;
61785;SDS011;47692;53.714;11.372;2023-08-06T12:46:39;4.80;;;1.88;;
61785;SDS011;47692;53.714;11.372;2023-08-06T12:56:19;4.57;;;2.13;;
61785;SDS011;47692;53.714;11.372;2023-08-06T13:09:11;4.68;;;1.73;;
61785;SDS011;47692;53.714;11.372;2023-08-06T13:11:38;5.32;;;1.88;;
61785;SDS011;47692;53.714;11.372;2023-08-06T13:14:05;2.90;;;1.80;;
61785;SDS011;47692;53.714;11.372;2023-08-06T13:16:32;5.32;;;1.60;;
61785;SDS011;47692;53.714;11.372;2023-08-06T13:18:58;3.20;;;1.40;;
61785;SDS011;47692;53.714;11.372;2023-08-06T13:21:23;3.42;;;1.42;;
61785;SDS011;47692;53.714;11.372;2023-08-06T13:23:48;2.63;;;1.20;;
61785;SDS011;47692;53.714;11.372;2023-08-06T13:26:14;4.03;;;1.40;;
61785;SDS011;47692;53.714;11.372;2023-08-06T13:28:40;2.60;;;1.20;;
61785;SDS011;47692;53.714;11.372;2023-08-06T13:31:06;2.13;;;1.15;;
61785;SDS011;47692;53.714;11.372;2023-08-06T13:33:31;6.05;;;1.50;;
61785;SDS011;47692;53.714;11.372;2023-08-06T13:35:57;2.33;;;1.20;;
61785;SDS011;47692;53.714;11.372;2023-08-06T13:38:22;1.92;;;1.10;;
61785;SDS011;47692;53.714;11.372;2023-08-06T13:40:47;3.13;;;1.25;;
61785;SDS011;47692;53.714;11.372;2023-08-06T13:43:13;2.95;;;1.20;;
61785;SDS011;47692;53.714;11.372;2023-08-06T13:45:40;3.83;;;1.40;;
61785;SDS011;47692;53.714;11.372;2023-08-06T13:48:06;2.63;;;1.48;;
61785;SDS011;47692;53.714;11.372;2023-08-06T13:50:31;3.83;;;1.35;;
61785;SDS011;47692;53.714;11.372;2023-08-06T13:52:56;5.05;;;1.50;;
61785;SDS011;47692;53.714;11.372;2023-08-06T13:55:22;4.50;;;1.70;;
61785;SDS011;47692;53.714;11.372;2023-08-06T13:57:47;3.83;;;1.55;;
61785;SDS011;47692;53.714;11.372;2023-08-06T14:00:13;1.73;;;1.17;;
61785;SDS011;47692;53.714;11.372;2023-08-06T14:02:38;3.10;;;1.30;;
61785;SDS011;47692;53.714;11.372;2023-08-06T14:05:04;2.78;;;1.67;;
61785;SDS011;47692;53.714;11.372;2023-08-06T14:07:30;3.58;;;1.30;;
61785;SDS011;47692;53.714;11.372;2023-08-06T14:09:55;2.97;;;1.70;;
61785;SDS011;47692;53.714;11.372;2023-08-06T14:12:22;3.33;;;1.42;;
61785;SDS011;47692;53.714;11.372;2023-08-06T14:14:48;4.35;;;1.33;;
61785;SDS011;47692;53.714;11.372;2023-08-06T14:17:13;5.18;;;1.50;;
61785;SDS011;47692;53.714;11.372;2023-08-06T14:19:38;3.05;;;1.70;;
61785;SDS011;47692;53.714;11.372;2023-08-06T14:22:04;4.85;;;1.35;;
61785;SDS011;47692;53.714;11.372;2023-08-06T14:24:29;2.30;;;1.15;;
61785;SDS011;47692;53.714;11.372;2023-08-06T14:26:55;3.40;;;1.30;;
61785;SDS011;47692;53.714;11.372;2023-08-06T14:29:20;2.80;;;1.25;;
61785;SDS011;47692;53.714;11.372;2023-08-06T14:31:45;2.08;;;1.10;;
61785;SDS011;47692;53.714;11.372;2023-08-06T14:34:11;4.20;;;1.38;;
61785;SDS011;47692;53.714;11.372;2023-08-06T14:36:36;3.38;;;1.27;;
61785;SDS011;47692;53.714;11.372;2023-08-06T14:39:01;2.33;;;1.20;;
61785;SDS011;47692;53.714;11.372;2023-08-06T14:41:26;3.47;;;1.67;;
61785;SDS011;47692;53.714;11.372;2023-08-06T14:43:52;4.88;;;1.63;;
61785;SDS011;47692;53.714;11.372;2023-08-06T14:46:18;4.80;;;1.70;;
61785;SDS011;47692;53.714;11.372;2023-08-06T14:48:44;4.85;;;1.70;;
61785;SDS011;47692;53.714;11.372;2023-08-06T14:51:09;3.25;;;1.73;;
61785;SDS011;47692;53.714;11.372;2023-08-06T14:53:34;2.72;;;1.60;;
61785;SDS011;47692;53.714;11.372;2023-08-06T14:56:00;3.83;;;1.60;;
61785;SDS011;47692;53.714;11.372;2023-08-06T14:58:25;6.75;;;2.10;;
61785;SDS011;47692;53.714;11.372;2023-08-06T15:00:50;2.88;;;1.60;;
61785;SDS011;47692;53.714;11.372;2023-08-06T15:03:16;2.97;;;1.77;;
61785;SDS011;47692;53.714;11.372;2023-08-06T15:05:46;5.03;;;1.77;;
61785;SDS011;47692;53.714;11.372;2023-08-06T15:08:12;5.28;;;2.20;;